sensor_id;sensor_type;location;lat;lon;timestamp;P1;durP1;ratioP1;P2;durP2;ratioP2
75450;SDS011;64029;48.244;9.188;2023-11-22T00:00:27;11.07;;;7.60;;
75450;SDS011;64029;48.244;9.188;2023-11-22T00:02:53;11.30;;;7.00;;
75450;SDS011;64029;48.244;9.188;2023-11-22T00:05:20;10.73;;;7.60;;
75450;SDS011;64029;48.244;9.188;2023-11-22T00:07:47;10.97;;;5.50;;
75450;SDS011;64029;48.244;9.188;2023-11-22T00:10:14;8.27;;;5.70;;
75450;SDS011;64029;48.244;9.188;2023-11-22T00:12:42;8.80;;;7.03;;
75450;SDS011;64029;48.244;9.188;2023-11-22T00:15:09;10.07;;;6.27;;
75450;SDS011;64029;48.244;9.188;2023-11-22T00:17:36;11.30;;;6.20;;
75450;SDS011;64029;48.244;9.188;2023-11-22T00:20:04;12.97;;;7.20;;
75450;SDS011;64029;48.244;9.188;2023-11-22T00:22:33;9.27;;;6.03;;
75450;SDS011;64029;48.244;9.188;2023-11-22T00:24:59;11.80;;;8.23;;
75450;SDS011;64029;48.244;9.188;2023-11-22T00:27:27;15.40;;;8.10;;
75450;SDS011;64029;48.244;9.188;2023-11-22T00:29:56;11.67;;;6.57;;
75450;SDS011;64029;48.244;9.188;2023-11-22T00:32:23;9.30;;;6.30;;
75450;SDS011;64029;48.244;9.188;2023-11-22T00:34:50;8.70;;;6.43;;
75450;SDS011;64029;48.244;9.188;2023-11-22T00:37:17;11.30;;;6.17;;
75450;SDS011;64029;48.244;9.188;2023-11-22T00:39:44;10.07;;;6.03;;
75450;SDS011;64029;48.244;9.188;2023-11-22T00:42:11;7.83;;;5.90;;
75450;SDS011;64029;48.244;9.188;2023-11-22T00:44:38;7.27;;;5.90;;
75450;SDS011;64029;48.244;9.188;2023-11-22T00:47:06;8.77;;;4.93;;
75450;SDS011;64029;48.244;9.188;2023-11-22T00:49:33;8.63;;;5.97;;
75450;SDS011;64029;48.244;9.188;2023-11-22T00:52:00;8.83;;;5.00;;
75450;SDS011;64029;48.244;9.188;2023-11-22T00:54:28;11.73;;;6.50;;
75450;SDS011;64029;48.244;9.188;2023-11-22T00:56:54;9.40;;;6.00;;
75450;SDS011;64029;48.244;9.188;2023-11-22T00:59:21;9.17;;;5.93;;
75450;SDS011;64029;48.244;9.188;2023-11-22T01:01:48;10.73;;;6.30;;
75450;SDS011;64029;48.244;9.188;2023-11-22T01:04:16;9.27;;;5.30;;
75450;SDS011;64029;48.244;9.188;2023-11-22T01:06:45;9.53;;;5.20;;
75450;SDS011;64029;48.244;9.188;2023-11-22T01:09:12;7.00;;;4.93;;
75450;SDS011;64029;48.244;9.188;2023-11-22T01:11:39;10.33;;;5.63;;
75450;SDS011;64029;48.244;9.188;2023-11-22T01:14:06;6.20;;;4.30;;
75450;SDS011;64029;48.244;9.188;2023-11-22T01:16:33;6.00;;;4.50;;
75450;SDS011;64029;48.244;9.188;2023-11-22T01:19:02;5.00;;;4.37;;
75450;SDS011;64029;48.244;9.188;2023-11-22T01:21:30;7.87;;;4.67;;
75450;SDS011;64029;48.244;9.188;2023-11-22T01:23:57;6.43;;;4.60;;
75450;SDS011;64029;48.244;9.188;2023-11-22T01:26:25;8.03;;;5.60;;
75450;SDS011;64029;48.244;9.188;2023-11-22T01:28:51;8.93;;;5.17;;
75450;SDS011;64029;48.244;9.188;2023-11-22T01:31:18;7.60;;;5.13;;
75450;SDS011;64029;48.244;9.188;2023-11-22T01:33:46;6.30;;;3.83;;
75450;SDS011;64029;48.244;9.188;2023-11-22T01:36:13;7.10;;;4.50;;
75450;SDS011;64029;48.244;9.188;2023-11-22T01:38:41;6.00;;;3.83;;
75450;SDS011;64029;48.244;9.188;2023-11-22T01:41:09;4.23;;;3.40;;
75450;SDS011;64029;48.244;9.188;2023-11-22T01:43:38;4.70;;;3.70;;
75450;SDS011;64029;48.244;9.188;2023-11-22T01:46:05;6.87;;;4.20;;
75450;SDS011;64029;48.244;9.188;2023-11-22T01:48:33;5.67;;;3.70;;
75450;SDS011;64029;48.244;9.188;2023-11-22T01:51:01;5.43;;;4.20;;
75450;SDS011;64029;48.244;9.188;2023-11-22T01:53:28;7.13;;;4.57;;
75450;SDS011;64029;48.244;9.188;2023-11-22T01:55:57;4.43;;;3.93;;
75450;SDS011;64029;48.244;9.188;2023-11-22T01:58:24;6.10;;;4.07;;
75450;SDS011;64029;48.244;9.188;2023-11-22T02:00:52;5.50;;;4.50;;
75450;SDS011;64029;48.244;9.188;2023-11-22T02:03:19;6.77;;;4.87;;
75450;SDS011;64029;48.244;9.188;2023-11-22T02:05:47;4.73;;;4.10;;
75450;SDS011;64029;48.244;9.188;2023-11-22T02:08:14;6.37;;;4.13;;
75450;SDS011;64029;48.244;9.188;2023-11-22T02:10:42;5.57;;;4.30;;
75450;SDS011;64029;48.244;9.188;2023-11-22T02:13:11;4.70;;;4.20;;
75450;SDS011;64029;48.244;9.188;2023-11-22T02:15:38;6.07;;;4.10;;
75450;SDS011;64029;48.244;9.188;2023-11-22T02:18:05;7.73;;;4.47;;
75450;SDS011;64029;48.244;9.188;2023-11-22T02:20:32;8.33;;;4.73;;
75450;SDS011;64029;48.244;9.188;2023-11-22T02:23:02;7.20;;;4.80;;
75450;SDS011;64029;48.244;9.188;2023-11-22T02:25:33;6.20;;;4.10;;
75450;SDS011;64029;48.244;9.188;2023-11-22T02:28:00;4.83;;;4.07;;
75450;SDS011;64029;48.244;9.188;2023-11-22T02:30:28;7.20;;;4.57;;
75450;SDS011;64029;48.244;9.188;2023-11-22T02:32:55;4.23;;;3.37;;
75450;SDS011;64029;48.244;9.188;2023-11-22T02:35:22;5.07;;;3.17;;
75450;SDS011;64029;48.244;9.188;2023-11-22T02:37:48;2.80;;;2.30;;
75450;SDS011;64029;48.244;9.188;2023-11-22T02:40:17;3.33;;;2.40;;
75450;SDS011;64029;48.244;9.188;2023-11-22T02:42:45;2.33;;;1.90;;
75450;SDS011;64029;48.244;9.188;2023-11-22T02:45:13;2.33;;;1.40;;
75450;SDS011;64029;48.244;9.188;2023-11-22T02:47:40;1.37;;;1.27;;
75450;SDS011;64029;48.244;9.188;2023-11-22T02:50:11;1.20;;;1.10;;
75450;SDS011;64029;48.244;9.188;2023-11-22T02:52:38;1.50;;;1.00;;
75450;SDS011;64029;48.244;9.188;2023-11-22T02:55:05;1.10;;;1.00;;
75450;SDS011;64029;48.244;9.188;2023-11-22T02:57:35;3.50;;;1.20;;
75450;SDS011;64029;48.244;9.188;2023-11-22T03:00:03;1.57;;;1.30;;
75450;SDS011;64029;48.244;9.188;2023-11-22T03:02:32;4.27;;;1.33;;
75450;SDS011;64029;48.244;9.188;2023-11-22T03:04:58;1.43;;;1.33;;
75450;SDS011;64029;48.244;9.188;2023-11-22T03:07:25;1.30;;;1.20;;
75450;SDS011;64029;48.244;9.188;2023-11-22T03:09:52;1.90;;;1.50;;
75450;SDS011;64029;48.244;9.188;2023-11-22T03:12:19;1.20;;;1.10;;
75450;SDS011;64029;48.244;9.188;2023-11-22T03:14:47;1.40;;;1.20;;
75450;SDS011;64029;48.244;9.188;2023-11-22T03:17:14;2.10;;;1.27;;
75450;SDS011;64029;48.244;9.188;2023-11-22T03:19:41;1.30;;;1.13;;
75450;SDS011;64029;48.244;9.188;2023-11-22T03:22:10;1.20;;;1.03;;
75450;SDS011;64029;48.244;9.188;2023-11-22T03:24:37;1.30;;;1.10;;
75450;SDS011;64029;48.244;9.188;2023-11-22T03:27:04;1.53;;;1.43;;
75450;SDS011;64029;48.244;9.188;2023-11-22T03:29:31;1.20;;;1.10;;
75450;SDS011;64029;48.244;9.188;2023-11-22T03:32:01;1.03;;;0.93;;
75450;SDS011;64029;48.244;9.188;2023-11-22T03:34:28;1.27;;;1.10;;
75450;SDS011;64029;48.244;9.188;2023-11-22T03:36:54;1.10;;;1.00;;
75450;SDS011;64029;48.244;9.188;2023-11-22T03:39:21;1.20;;;1.10;;
75450;SDS011;64029;48.244;9.188;2023-11-22T03:41:48;1.40;;;1.30;;
75450;SDS011;64029;48.244;9.188;2023-11-22T03:44:16;1.53;;;1.30;;
75450;SDS011;64029;48.244;9.188;2023-11-22T03:46:43;1.57;;;1.47;;
75450;SDS011;64029;48.244;9.188;2023-11-22T03:49:11;2.67;;;1.50;;
75450;SDS011;64029;48.244;9.188;2023-11-22T03:51:40;1.43;;;1.33;;
75450;SDS011;64029;48.244;9.188;2023-11-22T03:54:08;1.30;;;1.10;;
75450;SDS011;64029;48.244;9.188;2023-11-22T03:56:37;1.80;;;1.50;;
75450;SDS011;64029;48.244;9.188;2023-11-22T03:59:04;1.70;;;1.60;;
75450;SDS011;64029;48.244;9.188;2023-11-22T04:01:31;1.30;;;1.20;;
75450;SDS011;64029;48.244;9.188;2023-11-22T04:03:58;2.00;;;1.30;;
75450;SDS011;64029;48.244;9.188;2023-11-22T04:06:26;1.50;;;1.40;;
75450;SDS011;64029;48.244;9.188;2023-11-22T04:08:53;1.30;;;1.20;;
75450;SDS011;64029;48.244;9.188;2023-11-22T04:11:20;1.40;;;1.30;;
75450;SDS011;64029;48.244;9.188;2023-11-22T04:13:47;1.37;;;1.20;;
75450;SDS011;64029;48.244;9.188;2023-11-22T04:16:14;2.37;;;1.70;;
75450;SDS011;64029;48.244;9.188;2023-11-22T04:18:42;2.50;;;2.10;;
75450;SDS011;64029;48.244;9.188;2023-11-22T04:21:10;2.63;;;2.43;;
75450;SDS011;64029;48.244;9.188;2023-11-22T04:23:38;3.67;;;3.03;;
75450;SDS011;64029;48.244;9.188;2023-11-22T04:26:05;4.07;;;2.30;;
75450;SDS011;64029;48.244;9.188;2023-11-22T04:28:33;3.97;;;2.90;;
75450;SDS011;64029;48.244;9.188;2023-11-22T04:31:00;3.77;;;3.03;;
75450;SDS011;64029;48.244;9.188;2023-11-22T04:33:29;2.87;;;2.53;;
75450;SDS011;64029;48.244;9.188;2023-11-22T04:35:55;2.73;;;2.43;;
75450;SDS011;64029;48.244;9.188;2023-11-22T04:38:22;3.13;;;2.80;;
75450;SDS011;64029;48.244;9.188;2023-11-22T04:40:51;2.67;;;2.47;;
75450;SDS011;64029;48.244;9.188;2023-11-22T04:43:18;3.20;;;2.90;;
75450;SDS011;64029;48.244;9.188;2023-11-22T04:45:45;4.77;;;3.10;;
75450;SDS011;64029;48.244;9.188;2023-11-22T04:48:12;2.93;;;2.70;;
75450;SDS011;64029;48.244;9.188;2023-11-22T04:50:40;3.07;;;2.60;;
75450;SDS011;64029;48.244;9.188;2023-11-22T04:53:07;3.30;;;2.87;;
75450;SDS011;64029;48.244;9.188;2023-11-22T04:55:34;2.47;;;2.27;;
75450;SDS011;64029;48.244;9.188;2023-11-22T04:58:02;3.60;;;2.90;;
75450;SDS011;64029;48.244;9.188;2023-11-22T05:00:29;2.60;;;2.20;;
75450;SDS011;64029;48.244;9.188;2023-11-22T05:02:56;2.57;;;2.37;;
75450;SDS011;64029;48.244;9.188;2023-11-22T05:05:23;4.03;;;3.30;;
75450;SDS011;64029;48.244;9.188;2023-11-22T05:07:49;4.03;;;3.23;;
75450;SDS011;64029;48.244;9.188;2023-11-22T05:10:16;5.37;;;3.70;;
75450;SDS011;64029;48.244;9.188;2023-11-22T05:12:43;4.83;;;3.63;;
75450;SDS011;64029;48.244;9.188;2023-11-22T05:15:11;3.73;;;3.43;;
75450;SDS011;64029;48.244;9.188;2023-11-22T05:17:39;4.93;;;3.67;;
75450;SDS011;64029;48.244;9.188;2023-11-22T05:20:06;5.43;;;3.93;;
75450;SDS011;64029;48.244;9.188;2023-11-22T05:22:35;3.50;;;3.20;;
75450;SDS011;64029;48.244;9.188;2023-11-22T05:25:02;3.00;;;2.70;;
75450;SDS011;64029;48.244;9.188;2023-11-22T05:27:30;3.10;;;2.63;;
75450;SDS011;64029;48.244;9.188;2023-11-22T05:29:57;2.53;;;2.33;;
75450;SDS011;64029;48.244;9.188;2023-11-22T05:32:27;3.00;;;2.70;;
75450;SDS011;64029;48.244;9.188;2023-11-22T05:34:53;2.20;;;2.00;;
75450;SDS011;64029;48.244;9.188;2023-11-22T05:37:20;2.60;;;2.40;;
75450;SDS011;64029;48.244;9.188;2023-11-22T05:39:47;3.03;;;2.30;;
75450;SDS011;64029;48.244;9.188;2023-11-22T05:42:14;2.70;;;2.20;;
75450;SDS011;64029;48.244;9.188;2023-11-22T05:44:41;3.17;;;2.83;;
75450;SDS011;64029;48.244;9.188;2023-11-22T05:47:08;3.53;;;2.60;;
75450;SDS011;64029;48.244;9.188;2023-11-22T05:49:36;2.33;;;2.10;;
75450;SDS011;64029;48.244;9.188;2023-11-22T05:52:03;2.83;;;2.53;;
75450;SDS011;64029;48.244;9.188;2023-11-22T05:54:30;3.53;;;2.40;;
75450;SDS011;64029;48.244;9.188;2023-11-22T05:56:57;2.67;;;2.30;;
75450;SDS011;64029;48.244;9.188;2023-11-22T05:59:24;3.73;;;2.37;;
75450;SDS011;64029;48.244;9.188;2023-11-22T06:01:51;2.53;;;2.33;;
75450;SDS011;64029;48.244;9.188;2023-11-22T06:04:18;2.30;;;2.10;;
75450;SDS011;64029;48.244;9.188;2023-11-22T06:06:46;2.20;;;2.00;;
75450;SDS011;64029;48.244;9.188;2023-11-22T06:09:12;3.10;;;2.57;;
75450;SDS011;64029;48.244;9.188;2023-11-22T06:11:40;3.37;;;2.37;;
75450;SDS011;64029;48.244;9.188;2023-11-22T06:14:07;2.60;;;2.40;;
75450;SDS011;64029;48.244;9.188;2023-11-22T06:16:33;3.40;;;2.80;;
75450;SDS011;64029;48.244;9.188;2023-11-22T06:19:00;3.70;;;2.70;;
75450;SDS011;64029;48.244;9.188;2023-11-22T06:21:27;3.83;;;3.20;;
75450;SDS011;64029;48.244;9.188;2023-11-22T06:23:56;3.80;;;3.17;;
75450;SDS011;64029;48.244;9.188;2023-11-22T06:26:23;4.63;;;3.20;;
75450;SDS011;64029;48.244;9.188;2023-11-22T06:28:50;4.20;;;2.80;;
75450;SDS011;64029;48.244;9.188;2023-11-22T06:31:17;6.50;;;4.23;;
75450;SDS011;64029;48.244;9.188;2023-11-22T06:33:43;4.80;;;3.60;;
75450;SDS011;64029;48.244;9.188;2023-11-22T06:36:10;3.97;;;3.57;;
75450;SDS011;64029;48.244;9.188;2023-11-22T06:38:39;4.40;;;4.00;;
75450;SDS011;64029;48.244;9.188;2023-11-22T06:41:07;4.97;;;4.10;;
75450;SDS011;64029;48.244;9.188;2023-11-22T06:43:34;6.43;;;3.80;;
75450;SDS011;64029;48.244;9.188;2023-11-22T06:46:01;5.93;;;4.60;;
75450;SDS011;64029;48.244;9.188;2023-11-22T06:48:30;5.20;;;4.07;;
75450;SDS011;64029;48.244;9.188;2023-11-22T06:50:58;6.57;;;4.70;;
75450;SDS011;64029;48.244;9.188;2023-11-22T06:53:24;5.20;;;4.57;;
75450;SDS011;64029;48.244;9.188;2023-11-22T06:55:51;5.73;;;4.00;;
75450;SDS011;64029;48.244;9.188;2023-11-22T06:58:19;5.73;;;4.17;;
75450;SDS011;64029;48.244;9.188;2023-11-22T07:00:46;5.07;;;4.17;;
75450;SDS011;64029;48.244;9.188;2023-11-22T07:03:13;6.50;;;5.00;;
75450;SDS011;64029;48.244;9.188;2023-11-22T07:05:40;5.80;;;4.37;;
75450;SDS011;64029;48.244;9.188;2023-11-22T07:08:07;4.90;;;4.00;;
75450;SDS011;64029;48.244;9.188;2023-11-22T07:10:36;4.53;;;3.70;;
75450;SDS011;64029;48.244;9.188;2023-11-22T07:13:03;3.97;;;3.60;;
75450;SDS011;64029;48.244;9.188;2023-11-22T07:15:31;4.87;;;3.80;;
75450;SDS011;64029;48.244;9.188;2023-11-22T07:17:58;4.70;;;3.73;;
75450;SDS011;64029;48.244;9.188;2023-11-22T07:20:25;4.47;;;3.57;;
75450;SDS011;64029;48.244;9.188;2023-11-22T07:22:52;5.53;;;3.97;;
75450;SDS011;64029;48.244;9.188;2023-11-22T07:25:22;6.03;;;3.93;;
75450;SDS011;64029;48.244;9.188;2023-11-22T07:27:50;5.80;;;4.00;;
75450;SDS011;64029;48.244;9.188;2023-11-22T07:30:18;4.63;;;3.97;;
75450;SDS011;64029;48.244;9.188;2023-11-22T07:32:49;6.00;;;5.03;;
75450;SDS011;64029;48.244;9.188;2023-11-22T07:35:17;6.80;;;3.93;;
75450;SDS011;64029;48.244;9.188;2023-11-22T07:37:45;5.60;;;4.63;;
75450;SDS011;64029;48.244;9.188;2023-11-22T07:40:13;5.20;;;4.53;;
75450;SDS011;64029;48.244;9.188;2023-11-22T07:42:40;5.53;;;4.53;;
75450;SDS011;64029;48.244;9.188;2023-11-22T07:45:09;7.03;;;4.97;;
75450;SDS011;64029;48.244;9.188;2023-11-22T07:47:36;6.87;;;4.10;;
75450;SDS011;64029;48.244;9.188;2023-11-22T07:50:08;4.83;;;4.30;;
75450;SDS011;64029;48.244;9.188;2023-11-22T07:52:36;6.07;;;4.87;;
75450;SDS011;64029;48.244;9.188;2023-11-22T07:55:05;7.17;;;5.50;;
75450;SDS011;64029;48.244;9.188;2023-11-22T07:57:33;9.37;;;6.20;;
75450;SDS011;64029;48.244;9.188;2023-11-22T08:00:00;6.83;;;4.70;;
75450;SDS011;64029;48.244;9.188;2023-11-22T08:02:29;5.17;;;4.67;;
75450;SDS011;64029;48.244;9.188;2023-11-22T08:04:56;6.47;;;3.80;;
75450;SDS011;64029;48.244;9.188;2023-11-22T08:07:28;4.20;;;3.77;;
75450;SDS011;64029;48.244;9.188;2023-11-22T08:09:55;6.17;;;4.67;;
75450;SDS011;64029;48.244;9.188;2023-11-22T08:12:22;6.43;;;4.00;;
75450;SDS011;64029;48.244;9.188;2023-11-22T08:14:48;6.10;;;3.83;;
75450;SDS011;64029;48.244;9.188;2023-11-22T08:17:16;3.50;;;3.20;;
75450;SDS011;64029;48.244;9.188;2023-11-22T08:19:44;5.20;;;3.80;;
75450;SDS011;64029;48.244;9.188;2023-11-22T08:22:13;3.60;;;3.30;;
75450;SDS011;64029;48.244;9.188;2023-11-22T08:24:41;5.20;;;3.30;;
75450;SDS011;64029;48.244;9.188;2023-11-22T08:27:09;6.50;;;3.40;;
75450;SDS011;64029;48.244;9.188;2023-11-22T08:29:37;3.93;;;3.40;;
75450;SDS011;64029;48.244;9.188;2023-11-22T08:32:04;6.77;;;3.10;;
75450;SDS011;64029;48.244;9.188;2023-11-22T08:34:33;4.60;;;3.63;;
75450;SDS011;64029;48.244;9.188;2023-11-22T08:37:00;3.40;;;3.00;;
75450;SDS011;64029;48.244;9.188;2023-11-22T08:39:27;6.03;;;4.23;;
75450;SDS011;64029;48.244;9.188;2023-11-22T08:41:56;4.40;;;3.63;;
75450;SDS011;64029;48.244;9.188;2023-11-22T08:44:23;5.30;;;3.73;;
75450;SDS011;64029;48.244;9.188;2023-11-22T08:46:50;4.90;;;3.43;;
75450;SDS011;64029;48.244;9.188;2023-11-22T08:49:17;4.10;;;3.70;;
75450;SDS011;64029;48.244;9.188;2023-11-22T08:51:44;4.23;;;3.47;;
75450;SDS011;64029;48.244;9.188;2023-11-22T08:54:12;4.10;;;3.40;;
75450;SDS011;64029;48.244;9.188;2023-11-22T08:56:39;4.70;;;3.33;;
75450;SDS011;64029;48.244;9.188;2023-11-22T08:59:08;4.43;;;3.73;;
75450;SDS011;64029;48.244;9.188;2023-11-22T09:01:35;5.27;;;3.90;;
75450;SDS011;64029;48.244;9.188;2023-11-22T09:04:02;5.87;;;4.23;;
75450;SDS011;64029;48.244;9.188;2023-11-22T09:06:29;4.70;;;4.00;;
75450;SDS011;64029;48.244;9.188;2023-11-22T09:08:57;5.27;;;3.73;;
75450;SDS011;64029;48.244;9.188;2023-11-22T09:11:25;3.80;;;3.30;;
75450;SDS011;64029;48.244;9.188;2023-11-22T09:13:51;4.53;;;3.50;;
75450;SDS011;64029;48.244;9.188;2023-11-22T09:16:23;4.83;;;4.27;;
75450;SDS011;64029;48.244;9.188;2023-11-22T09:18:51;6.37;;;4.10;;
75450;SDS011;64029;48.244;9.188;2023-11-22T09:21:19;8.50;;;4.73;;
75450;SDS011;64029;48.244;9.188;2023-11-22T09:23:46;5.47;;;4.33;;
75450;SDS011;64029;48.244;9.188;2023-11-22T09:26:14;5.43;;;4.50;;
75450;SDS011;64029;48.244;9.188;2023-11-22T09:28:40;6.20;;;5.27;;
75450;SDS011;64029;48.244;9.188;2023-11-22T09:31:08;6.23;;;4.30;;
75450;SDS011;64029;48.244;9.188;2023-11-22T09:33:39;6.60;;;5.00;;
75450;SDS011;64029;48.244;9.188;2023-11-22T09:36:07;8.83;;;4.60;;
75450;SDS011;64029;48.244;9.188;2023-11-22T09:38:36;6.27;;;4.67;;
75450;SDS011;64029;48.244;9.188;2023-11-22T09:41:03;6.53;;;4.90;;
75450;SDS011;64029;48.244;9.188;2023-11-22T09:43:33;6.30;;;5.13;;
75450;SDS011;64029;48.244;9.188;2023-11-22T09:46:00;5.70;;;5.00;;
75450;SDS011;64029;48.244;9.188;2023-11-22T09:48:27;5.30;;;4.80;;
75450;SDS011;64029;48.244;9.188;2023-11-22T09:51:00;5.73;;;4.50;;
75450;SDS011;64029;48.244;9.188;2023-11-22T09:53:31;8.13;;;5.53;;
75450;SDS011;64029;48.244;9.188;2023-11-22T09:55:59;5.97;;;5.07;;
75450;SDS011;64029;48.244;9.188;2023-11-22T09:58:28;8.47;;;6.30;;
75450;SDS011;64029;48.244;9.188;2023-11-22T10:00:57;9.27;;;5.83;;
75450;SDS011;64029;48.244;9.188;2023-11-22T10:03:25;8.40;;;5.00;;
75450;SDS011;64029;48.244;9.188;2023-11-22T10:05:53;7.17;;;5.40;;
75450;SDS011;64029;48.244;9.188;2023-11-22T10:08:23;6.97;;;4.87;;
75450;SDS011;64029;48.244;9.188;2023-11-22T10:10:50;6.80;;;4.83;;
75450;SDS011;64029;48.244;9.188;2023-11-22T10:13:19;6.57;;;4.50;;
75450;SDS011;64029;48.244;9.188;2023-11-22T10:15:46;5.97;;;4.70;;
75450;SDS011;64029;48.244;9.188;2023-11-22T10:18:14;5.03;;;3.93;;
75450;SDS011;64029;48.244;9.188;2023-11-22T10:20:43;6.30;;;4.80;;
75450;SDS011;64029;48.244;9.188;2023-11-22T10:23:12;5.90;;;4.70;;
75450;SDS011;64029;48.244;9.188;2023-11-22T10:25:43;8.63;;;5.37;;
75450;SDS011;64029;48.244;9.188;2023-11-22T10:28:12;7.70;;;4.90;;
75450;SDS011;64029;48.244;9.188;2023-11-22T10:30:39;6.20;;;5.27;;
75450;SDS011;64029;48.244;9.188;2023-11-22T10:33:07;7.60;;;5.20;;
75450;SDS011;64029;48.244;9.188;2023-11-22T10:35:38;7.50;;;5.37;;
75450;SDS011;64029;48.244;9.188;2023-11-22T10:38:07;6.93;;;5.17;;
75450;SDS011;64029;48.244;9.188;2023-11-22T10:40:35;5.93;;;5.13;;
75450;SDS011;64029;48.244;9.188;2023-11-22T10:43:04;7.77;;;6.07;;
75450;SDS011;64029;48.244;9.188;2023-11-22T10:45:34;7.90;;;5.30;;
75450;SDS011;64029;48.244;9.188;2023-11-22T10:48:02;7.77;;;5.20;;
75450;SDS011;64029;48.244;9.188;2023-11-22T10:50:30;6.73;;;5.70;;
75450;SDS011;64029;48.244;9.188;2023-11-22T10:52:57;7.87;;;5.63;;
75450;SDS011;64029;48.244;9.188;2023-11-22T10:55:26;7.37;;;5.40;;
75450;SDS011;64029;48.244;9.188;2023-11-22T10:57:54;7.20;;;5.50;;
75450;SDS011;64029;48.244;9.188;2023-11-22T11:00:27;10.33;;;6.63;;
75450;SDS011;64029;48.244;9.188;2023-11-22T11:02:58;7.17;;;5.60;;
75450;SDS011;64029;48.244;9.188;2023-11-22T11:05:27;7.63;;;5.20;;
75450;SDS011;64029;48.244;9.188;2023-11-22T11:07:58;6.03;;;4.50;;
75450;SDS011;64029;48.244;9.188;2023-11-22T11:10:31;7.77;;;4.90;;
75450;SDS011;64029;48.244;9.188;2023-11-22T11:12:59;7.80;;;4.57;;
75450;SDS011;64029;48.244;9.188;2023-11-22T11:15:28;7.90;;;4.90;;
75450;SDS011;64029;48.244;9.188;2023-11-22T11:17:55;7.47;;;4.77;;
75450;SDS011;64029;48.244;9.188;2023-11-22T11:20:23;7.20;;;5.00;;
75450;SDS011;64029;48.244;9.188;2023-11-22T11:22:50;7.67;;;5.73;;
75450;SDS011;64029;48.244;9.188;2023-11-22T11:25:18;6.67;;;5.53;;
75450;SDS011;64029;48.244;9.188;2023-11-22T11:27:51;12.17;;;5.57;;
75450;SDS011;64029;48.244;9.188;2023-11-22T11:30:43;7.00;;;5.43;;
75450;SDS011;64029;48.244;9.188;2023-11-22T11:33:11;8.80;;;5.17;;
75450;SDS011;64029;48.244;9.188;2023-11-22T11:35:41;6.83;;;4.60;;
75450;SDS011;64029;48.244;9.188;2023-11-22T11:38:12;6.83;;;5.40;;
75450;SDS011;64029;48.244;9.188;2023-11-22T11:40:40;6.67;;;4.57;;
75450;SDS011;64029;48.244;9.188;2023-11-22T11:43:07;7.00;;;4.57;;
75450;SDS011;64029;48.244;9.188;2023-11-22T11:45:37;7.40;;;5.63;;
75450;SDS011;64029;48.244;9.188;2023-11-22T11:48:12;5.53;;;4.40;;
75450;SDS011;64029;48.244;9.188;2023-11-22T11:50:40;6.60;;;5.27;;
75450;SDS011;64029;48.244;9.188;2023-11-22T11:53:07;7.20;;;5.30;;
75450;SDS011;64029;48.244;9.188;2023-11-22T11:55:35;9.33;;;4.80;;
75450;SDS011;64029;48.244;9.188;2023-11-22T11:58:04;8.90;;;6.20;;
75450;SDS011;64029;48.244;9.188;2023-11-22T12:00:34;7.30;;;5.30;;
75450;SDS011;64029;48.244;9.188;2023-11-22T12:03:05;7.67;;;4.53;;
75450;SDS011;64029;48.244;9.188;2023-11-22T12:05:34;5.77;;;4.53;;
75450;SDS011;64029;48.244;9.188;2023-11-22T12:08:00;10.20;;;5.10;;
75450;SDS011;64029;48.244;9.188;2023-11-22T12:10:27;5.87;;;4.70;;
75450;SDS011;64029;48.244;9.188;2023-11-22T12:12:54;6.40;;;4.73;;
75450;SDS011;64029;48.244;9.188;2023-11-22T12:15:21;6.33;;;4.43;;
75450;SDS011;64029;48.244;9.188;2023-11-22T12:17:49;5.57;;;4.30;;
75450;SDS011;64029;48.244;9.188;2023-11-22T12:20:17;6.47;;;4.70;;
75450;SDS011;64029;48.244;9.188;2023-11-22T12:22:47;7.50;;;5.77;;
75450;SDS011;64029;48.244;9.188;2023-11-22T12:25:14;10.00;;;5.93;;
75450;SDS011;64029;48.244;9.188;2023-11-22T12:27:41;6.70;;;5.07;;
75450;SDS011;64029;48.244;9.188;2023-11-22T12:30:09;9.90;;;5.50;;
75450;SDS011;64029;48.244;9.188;2023-11-22T12:32:53;6.03;;;4.67;;
75450;SDS011;64029;48.244;9.188;2023-11-22T12:35:21;7.57;;;5.17;;
75450;SDS011;64029;48.244;9.188;2023-11-22T12:37:49;7.40;;;5.47;;
75450;SDS011;64029;48.244;9.188;2023-11-22T12:40:17;6.40;;;4.90;;
75450;SDS011;64029;48.244;9.188;2023-11-22T12:42:47;7.03;;;5.57;;
75450;SDS011;64029;48.244;9.188;2023-11-22T12:45:19;9.53;;;5.90;;
75450;SDS011;64029;48.244;9.188;2023-11-22T12:47:48;7.10;;;5.07;;
75450;SDS011;64029;48.244;9.188;2023-11-22T12:50:31;9.27;;;6.00;;
75450;SDS011;64029;48.244;9.188;2023-11-22T12:53:06;7.80;;;6.17;;
75450;SDS011;64029;48.244;9.188;2023-11-22T12:55:35;9.40;;;6.77;;
75450;SDS011;64029;48.244;9.188;2023-11-22T12:58:02;8.57;;;5.90;;
75450;SDS011;64029;48.244;9.188;2023-11-22T13:00:29;8.60;;;6.20;;
75450;SDS011;64029;48.244;9.188;2023-11-22T13:02:56;8.33;;;5.80;;
75450;SDS011;64029;48.244;9.188;2023-11-22T13:05:23;10.37;;;5.90;;
75450;SDS011;64029;48.244;9.188;2023-11-22T13:07:51;7.00;;;5.50;;
75450;SDS011;64029;48.244;9.188;2023-11-22T13:10:19;5.97;;;4.77;;
75450;SDS011;64029;48.244;9.188;2023-11-22T13:12:50;8.13;;;6.03;;
75450;SDS011;64029;48.244;9.188;2023-11-22T13:15:20;9.63;;;6.10;;
75450;SDS011;64029;48.244;9.188;2023-11-22T13:17:48;8.60;;;6.97;;
75450;SDS011;64029;48.244;9.188;2023-11-22T13:20:20;8.80;;;5.67;;
75450;SDS011;64029;48.244;9.188;2023-11-22T13:22:48;8.23;;;5.90;;
75450;SDS011;64029;48.244;9.188;2023-11-22T13:25:15;8.40;;;5.73;;
75450;SDS011;64029;48.244;9.188;2023-11-22T13:27:45;9.47;;;5.80;;
75450;SDS011;64029;48.244;9.188;2023-11-22T13:30:13;8.10;;;5.47;;
75450;SDS011;64029;48.244;9.188;2023-11-22T13:32:40;9.60;;;6.20;;
75450;SDS011;64029;48.244;9.188;2023-11-22T13:35:08;8.97;;;6.47;;
75450;SDS011;64029;48.244;9.188;2023-11-22T13:37:40;8.13;;;5.90;;
75450;SDS011;64029;48.244;9.188;2023-11-22T13:40:08;8.70;;;5.93;;
75450;SDS011;64029;48.244;9.188;2023-11-22T13:42:40;7.37;;;5.07;;
75450;SDS011;64029;48.244;9.188;2023-11-22T13:45:10;6.70;;;5.47;;
75450;SDS011;64029;48.244;9.188;2023-11-22T13:47:41;8.07;;;5.83;;
75450;SDS011;64029;48.244;9.188;2023-11-22T13:50:09;9.60;;;6.57;;
75450;SDS011;64029;48.244;9.188;2023-11-22T13:52:38;10.20;;;6.23;;
75450;SDS011;64029;48.244;9.188;2023-11-22T13:55:05;8.50;;;5.93;;
75450;SDS011;64029;48.244;9.188;2023-11-22T13:57:35;8.17;;;6.10;;
75450;SDS011;64029;48.244;9.188;2023-11-22T14:00:03;8.90;;;6.00;;
75450;SDS011;64029;48.244;9.188;2023-11-22T14:02:35;7.40;;;5.10;;
75450;SDS011;64029;48.244;9.188;2023-11-22T14:05:02;9.20;;;6.50;;
75450;SDS011;64029;48.244;9.188;2023-11-22T14:07:32;10.07;;;6.40;;
75450;SDS011;64029;48.244;9.188;2023-11-22T14:10:00;8.10;;;6.47;;
75450;SDS011;64029;48.244;9.188;2023-11-22T14:12:28;7.93;;;5.63;;
75450;SDS011;64029;48.244;9.188;2023-11-22T14:14:55;9.13;;;6.60;;
75450;SDS011;64029;48.244;9.188;2023-11-22T14:17:23;12.00;;;7.60;;
75450;SDS011;64029;48.244;9.188;2023-11-22T14:19:52;11.33;;;7.23;;
75450;SDS011;64029;48.244;9.188;2023-11-22T14:22:19;9.97;;;7.23;;
75450;SDS011;64029;48.244;9.188;2023-11-22T14:24:46;8.53;;;6.33;;
75450;SDS011;64029;48.244;9.188;2023-11-22T14:27:13;9.63;;;6.63;;
75450;SDS011;64029;48.244;9.188;2023-11-22T14:29:40;9.77;;;6.43;;
75450;SDS011;64029;48.244;9.188;2023-11-22T14:32:07;8.70;;;6.17;;
75450;SDS011;64029;48.244;9.188;2023-11-22T14:34:34;12.13;;;7.60;;
75450;SDS011;64029;48.244;9.188;2023-11-22T14:37:03;13.87;;;8.00;;
75450;SDS011;64029;48.244;9.188;2023-11-22T14:39:30;13.63;;;8.23;;
75450;SDS011;64029;48.244;9.188;2023-11-22T14:41:58;10.00;;;7.83;;
75450;SDS011;64029;48.244;9.188;2023-11-22T14:44:25;10.10;;;7.50;;
75450;SDS011;64029;48.244;9.188;2023-11-22T14:46:52;13.10;;;8.10;;
75450;SDS011;64029;48.244;9.188;2023-11-22T14:49:19;12.90;;;8.50;;